Time;durP1;ratioP1;P1;durP2;ratioP2;P2;SDS_P1;SDS_P2;PMS_P1;PMS_P2;Temp;Humidity;BMP_temperature;BMP_pressure;BME280_temperature;BME280_humidity;BME280_pressure;Samples;Min_cycle;Max_cycle;Signal;HPM_P1;HPM_P2
2022/05/10 00:02:14;;;;;;;10.15;5.30;;;;;;;15.79;57.23;101631.59;4987805;28;122693;-75
2022/05/10 00:04:42;;;;;;;13.48;5.45;;;;;;;15.82;57.31;101636.19;4988225;28;119724;-75
2022/05/10 00:07:08;;;;;;;11.60;5.43;;;;;;;15.75;56.83;101628.22;4975725;28;121755;-75
2022/05/10 00:09:34;;;;;;;13.40;6.00;;;;;;;15.80;57.03;101644.19;4970533;28;119828;-75
2022/05/10 00:11:59;;;;;;;13.93;5.28;;;;;;;15.75;57.37;101639.28;4969626;28;122684;-75
2022/05/10 00:14:27;;;;;;;10.80;5.53;;;;;;;15.81;57.35;101648.47;4950184;28;123131;-75
2022/05/10 00:16:54;;;;;;;13.50;6.00;;;;;;;15.82;57.00;101647.25;4988730;28;119714;-75
2022/05/10 00:19:22;;;;;;;10.77;5.00;;;;;;;15.83;56.97;101648.78;4991254;28;121153;-75
2022/05/10 00:21:49;;;;;;;11.18;5.00;;;;;;;15.83;56.84;101643.25;4961230;28;123088;-75
2022/05/10 00:24:16;;;;;;;11.10;4.63;;;;;;;15.80;56.59;101643.41;4989598;28;119865;-75
2022/05/10 00:26:43;;;;;;;11.02;5.00;;;;;;;15.75;57.05;101630.97;4984250;28;121759;-75
2022/05/10 00:29:09;;;;;;;12.32;5.13;;;;;;;15.79;56.53;101623.28;4978627;28;122638;-75
2022/05/10 00:31:35;;;;;;;12.38;5.30;;;;;;;15.87;56.74;101632.81;4979574;28;122184;-75
2022/05/10 00:34:01;;;;;;;9.10;4.90;;;;;;;15.87;56.51;101626.53;4993374;28;121343;-75
2022/05/10 00:36:27;;;;;;;7.55;4.53;;;;;;;15.90;56.05;101631.88;5010144;28;119739;-75
2022/05/10 00:38:53;;;;;;;12.60;4.95;;;;;;;15.92;55.85;101629.41;4962435;28;121753;-75
2022/05/10 00:41:37;;;;;;;9.80;4.72;;;;;;;15.92;56.34;101617.59;4973940;28;119875;-75
2022/05/10 00:44:15;;;;;;;11.60;4.75;;;;;;;15.96;56.48;101616.19;4973876;28;119814;-75
2022/05/10 00:46:45;;;;;;;9.63;4.35;;;;;;;15.99;56.28;101610.94;4989745;28;119869;-75
2022/05/10 00:49:28;;;;;;;11.15;4.95;;;;;;;16.00;56.47;101607.72;4957064;28;122912;-75
2022/05/10 00:52:13;;;;;;;12.45;4.93;;;;;;;16.02;55.97;101601.72;4993818;28;119853;-75
2022/05/10 00:54:50;;;;;;;12.15;4.90;;;;;;;16.04;55.72;101593.72;4994015;28;120258;-75
2022/05/10 00:57:28;;;;;;;13.25;4.15;;;;;;;16.03;54.70;101592.94;4969825;28;119775;-75
2022/05/10 01:00:02;;;;;;;12.77;5.22;;;;;;;16.05;55.38;101590.47;4991925;28;121819;-75
2022/05/10 01:02:36;;;;;;;10.00;4.28;;;;;;;16.04;55.08;101571.56;4991476;28;119875;-75
2022/05/10 01:05:11;;;;;;;10.38;4.63;;;;;;;16.10;55.66;101578.03;4957371;28;119736;-75
2022/05/10 01:07:49;;;;;;;15.98;5.28;;;;;;;16.09;55.72;101570.94;4994635;27;119451;-75
2022/05/10 01:10:27;;;;;;;11.45;4.85;;;;;;;16.07;55.45;101557.56;4971959;28;121943;-75
2022/05/10 01:13:36;;;;;;;13.13;4.95;;;;;;;16.08;55.42;101559.09;4957023;28;119898;-75
2022/05/10 01:16:09;;;;;;;11.98;4.63;;;;;;;16.08;55.42;101552.78;4976337;28;119565;-75
2022/05/10 01:18:36;;;;;;;8.32;4.53;;;;;;;16.03;55.43;101545.91;4966670;28;119962;-75
2022/05/10 01:21:19;;;;;;;11.02;5.32;;;;;;;16.05;55.63;101545.44;4989549;28;119589;-75
2022/05/10 01:23:59;;;;;;;9.30;5.28;;;;;;;16.06;56.10;101538.66;4959817;28;121240;-75
2022/05/10 01:26:33;;;;;;;9.90;4.68;;;;;;;16.05;55.77;101535.13;4981082;28;119943;-75
2022/05/10 01:29:08;;;;;;;16.38;4.85;;;;;;;16.04;55.16;101535.59;4972697;28;122770;-75
2022/05/10 01:31:46;;;;;;;13.50;5.43;;;;;;;15.99;55.57;101525.94;4965326;28;121265;-75
2022/05/10 01:34:20;;;;;;;12.57;5.22;;;;;;;15.95;55.71;101522.56;4991604;28;119672;-75
2022/05/10 01:36:45;;;;;;;10.23;4.90;;;;;;;15.97;55.38;101520.09;4975908;28;119879;-75
2022/05/10 01:39:30;;;;;;;11.40;5.20;;;;;;;15.96;55.67;101524.09;4974271;28;123182;-75
2022/05/10 01:42:08;;;;;;;10.68;5.45;;;;;;;15.96;55.44;101524.09;4964167;28;121853;-75
2022/05/10 01:44:52;;;;;;;10.13;4.88;;;;;;;15.94;55.46;101524.56;4959657;28;122783;-75
2022/05/10 01:47:33;;;;;;;9.80;4.88;;;;;;;15.91;55.56;101522.75;4973359;28;119829;-75
2022/05/10 01:50:28;;;;;;;12.10;5.10;;;;;;;15.92;55.77;101513.22;4955826;28;122068;-75
2022/05/10 01:53:08;;;;;;;15.18;4.80;;;;;;;15.92;55.81;101507.69;4957310;28;123354;-75
2022/05/10 01:55:40;;;;;;;12.52;4.72;;;;;;;15.89;55.98;101508.63;4956753;28;119585;-75
2022/05/10 01:58:14;;;;;;;13.43;5.53;;;;;;;15.88;56.00;101496.03;4966802;28;122077;-75
2022/05/10 02:00:43;;;;;;;13.57;5.38;;;;;;;15.94;55.69;101499.69;4939652;28;123634;-75
2022/05/10 02:03:12;;;;;;;12.60;5.15;;;;;;;15.96;55.77;101499.97;4976743;28;119931;-75
2022/05/10 02:05:53;;;;;;;13.25;4.68;;;;;;;15.95;56.17;101495.66;4959374;28;123392;-75
2022/05/10 02:08:48;;;;;;;11.07;4.88;;;;;;;15.94;55.84;101496.91;4989510;28;119897;-75
2022/05/10 02:11:16;;;;;;;8.77;4.90;;;;;;;15.92;55.89;101485.53;4988169;28;121372;-75
2022/05/10 02:14:08;;;;;;;13.75;5.05;;;;;;;15.92;55.94;101490.31;4963023;28;122359;-75
2022/05/10 02:16:41;;;;;;;12.40;5.18;;;;;;;15.90;55.91;101492.78;4997020;28;119753;-75
2022/05/10 02:19:13;;;;;;;11.43;4.93;;;;;;;15.89;55.78;101477.41;4984943;28;120984;-75
2022/05/10 02:21:45;;;;;;;11.15;4.93;;;;;;;15.87;56.16;101477.88;4972442;28;123837;-75
2022/05/10 02:24:31;;;;;;;11.50;5.25;;;;;;;15.85;56.03;101474.81;5006449;28;119737;-75
2022/05/10 02:27:22;;;;;;;11.82;4.90;;;;;;;15.83;56.28;101463.44;4974697;28;120170;-75
2022/05/10 02:29:52;;;;;;;12.32;5.25;;;;;;;15.76;56.62;101451.94;4934266;28;119744;-75
2022/05/10 02:35:26;;;;;;;12.65;5.32;;;;;;;15.80;56.96;101450.53;4997308;28;120372;-75
2022/05/10 02:37:51;;;;;;;10.75;5.38;;;;;;;15.79;56.80;101449.00;5007491;28;119852;-75
2022/05/10 02:40:17;;;;;;;9.82;5.45;;;;;;;15.79;56.82;101448.25;4988296;28;121626;-75
2022/05/10 02:42:48;;;;;;;10.45;5.35;;;;;;;15.72;56.59;101440.28;5000502;27;122670;-74
2022/05/10 02:45:18;;;;;;;11.38;5.50;;;;;;;15.76;56.68;101441.66;5011119;27;119987;-75
2022/05/10 02:47:45;;;;;;;9.98;4.93;;;;;;;15.76;56.79;101435.34;4992283;28;119675;-75
2022/05/10 02:50:14;;;;;;;17.02;5.25;;;;;;;15.75;56.42;101428.28;4971900;28;119838;-74
2022/05/10 02:52:39;;;;;;;10.98;4.93;;;;;;;15.73;56.71;101428.75;5006886;28;119483;-75
2022/05/10 02:55:16;;;;;;;9.40;5.03;;;;;;;15.68;56.57;101421.09;4971120;28;122819;-75
2022/05/10 02:57:46;;;;;;;9.27;4.78;;;;;;;15.67;56.73;101430.63;4972440;28;119763;-75
2022/05/10 03:00:13;;;;;;;10.63;5.68;;;;;;;15.64;56.90;101426.81;4971964;28;121639;-75
2022/05/10 03:02:43;;;;;;;13.88;5.32;;;;;;;15.69;57.06;101425.41;4975283;28;122411;-75
2022/05/10 03:05:12;;;;;;;14.73;5.90;;;;;;;15.59;56.95;101427.41;4988896;28;120388;-75
2022/05/10 03:07:38;;;;;;;14.18;5.00;;;;;;;15.58;56.88;101414.03;4988788;28;119782;-74
2022/05/10 03:10:05;;;;;;;7.35;4.53;;;;;;;15.67;56.71;101430.63;4969298;28;123268;-75
2022/05/10 03:12:31;;;;;;;15.93;5.22;;;;;;;15.67;56.93;101430.63;4989079;28;122060;-75
2022/05/10 03:14:57;;;;;;;7.07;4.50;;;;;;;15.60;57.06;101420.66;4989814;28;120073;-75
2022/05/10 03:17:23;;;;;;;13.70;6.07;;;;;;;15.68;57.05;101420.34;4986778;28;119967;-75
2022/05/10 03:19:50;;;;;;;11.48;5.35;;;;;;;15.62;57.34;101414.69;4984140;28;119468;-75
2022/05/10 03:22:15;;;;;;;13.07;5.45;;;;;;;15.68;57.72;101418.34;5005262;27;119803;-75
2022/05/10 03:24:41;;;;;;;10.88;5.60;;;;;;;15.63;57.77;101408.69;5005978;28;121579;-75
2022/05/10 03:27:09;;;;;;;8.90;5.55;;;;;;;15.72;57.79;101424.47;4990161;28;119983;-75
2022/05/10 03:29:36;;;;;;;9.80;5.05;;;;;;;15.74;58.27;101413.69;4997317;28;120723;-75
2022/05/10 03:32:02;;;;;;;9.18;5.72;;;;;;;15.74;58.36;101415.69;5006071;28;119916;-75
2022/05/10 03:37:12;;;;;;;;;;;;;;;15.76;57.88;101405.69;4972201;28;119596;-75
2022/05/10 03:39:37;;;;;;;12.38;5.60;;;;;;;15.77;58.18;101410.00;4990663;28;119380;-75
2022/05/10 03:42:03;;;;;;;16.25;6.50;;;;;;;15.71;58.24;101391.75;5000681;28;120592;-75
2022/05/10 03:44:34;;;;;;;11.90;6.18;;;;;;;15.82;58.48;101397.50;4988494;28;120352;-75
2022/05/10 03:47:03;;;;;;;;;;;;;;;15.81;58.03;101399.50;4992625;28;119585;-75
2022/05/10 03:49:29;;;;;;;11.40;5.55;;;;;;;15.83;58.29;101396.28;4990800;28;121797;-74
2022/05/10 03:51:56;;;;;;;18.00;6.47;;;;;;;15.86;57.92;101392.59;4968507;28;120058;-75
2022/05/10 03:54:23;;;;;;;15.02;6.25;;;;;;;15.87;58.44;101389.34;4965277;28;121019;-75
2022/05/10 03:56:50;;;;;;;11.10;6.50;;;;;;;15.87;58.09;101377.53;4987019;28;119651;-74
2022/05/10 03:59:17;;;;;;;14.10;6.20;;;;;;;15.91;58.28;101378.13;4974426;28;120146;-75
2022/05/10 04:01:43;;;;;;;11.93;6.38;;;;;;;15.93;58.31;101375.63;4967947;28;120736;-74
2022/05/10 04:04:08;;;;;;;12.32;6.28;;;;;;;15.89;58.06;101362.00;4973339;28;120242;-75
2022/05/10 04:06:34;;;;;;;15.32;6.93;;;;;;;15.93;58.29;101359.03;4988098;28;119466;-75
2022/05/10 04:09:00;;;;;;;13.95;6.97;;;;;;;15.89;58.11;101348.16;4960715;28;122723;-75
2022/05/10 04:11:28;;;;;;;14.75;6.20;;;;;;;16.01;57.90;101359.44;4978182;28;119620;-74
2022/05/10 04:13:54;;;;;;;16.50;7.15;;;;;;;16.02;58.45;101355.44;4993250;28;120933;-75
2022/05/10 04:16:20;;;;;;;11.57;5.88;;;;;;;16.06;58.18;101348.47;4978283;28;119840;-74
2022/05/10 04:18:48;;;;;;;11.77;5.90;;;;;;;16.13;58.36;101358.44;4974355;28;120233;-75
2022/05/10 04:21:14;;;;;;;11.10;6.38;;;;;;;16.13;57.25;101361.97;4981873;28;122551;-75
2022/05/10 04:23:40;;;;;;;11.43;6.43;;;;;;;16.14;57.32;101349.66;4966497;28;119639;-75
2022/05/10 04:26:08;;;;;;;13.52;6.10;;;;;;;16.25;56.79;101351.88;4984032;28;121657;-75
2022/05/10 04:28:36;;;;;;;11.02;6.25;;;;;;;16.31;57.49;101349.97;4989843;28;120236;-75
2022/05/10 04:31:02;;;;;;;15.23;6.65;;;;;;;16.34;56.81;101340.00;4988480;28;119933;-75
2022/05/10 04:33:28;;;;;;;14.93;6.47;;;;;;;16.38;56.62;101338.56;4994699;28;119950;-74
2022/05/10 04:35:54;;;;;;;13.43;6.57;;;;;;;16.40;56.38;101335.31;4989264;28;123748;-74
2022/05/10 04:38:21;;;;;;;14.50;6.93;;;;;;;16.51;56.05;101347.34;4991682;28;119724;-75
2022/05/10 04:43:36;;;;;;;14.48;6.50;;;;;;;16.62;56.35;101348.81;4974442;28;120015;-75
2022/05/10 04:46:02;;;;;;;15.48;7.50;;;;;;;16.64;55.40;101347.09;4985895;28;121863;-74
2022/05/10 04:48:28;;;;;;;15.75;6.72;;;;;;;16.68;55.46;101338.63;4975296;28;123412;-74
2022/05/10 04:50:53;;;;;;;14.65;6.82;;;;;;;16.62;55.80;101332.19;4994139;28;119571;-75
2022/05/10 04:53:19;;;;;;;14.68;7.07;;;;;;;16.70;55.70;101333.38;4989893;28;122093;-74
2022/05/10 04:55:45;;;;;;;14.70;6.63;;;;;;;16.80;56.05;101345.91;4974890;28;122029;-75
2022/05/10 04:58:13;;;;;;;13.85;6.90;;;;;;;16.84;55.66;101347.22;4978034;28;119796;-75
2022/05/10 05:00:39;;;;;;;14.82;6.50;;;;;;;16.88;55.59;101344.28;4957454;28;122769;-75
2022/05/10 05:03:04;;;;;;;14.52;6.80;;;;;;;16.91;55.96;101348.84;4991106;28;119558;-74
2022/05/10 05:05:30;;;;;;;15.38;6.65;;;;;;;16.89;55.47;101331.94;4992756;28;119563;-75
2022/05/10 05:07:56;;;;;;;13.75;6.68;;;;;;;16.95;55.83;101341.09;4973449;28;123157;-75
2022/05/10 05:10:21;;;;;;;20.15;7.25;;;;;;;16.98;55.87;101342.16;4996227;28;119624;-75
2022/05/10 05:12:47;;;;;;;13.65;6.25;;;;;;;17.03;55.55;101338.69;4991423;28;119433;-75
2022/05/10 05:15:13;;;;;;;14.07;7.15;;;;;;;17.05;56.04;101339.78;4984059;28;123430;-74
2022/05/10 05:17:39;;;;;;;13.07;6.97;;;;;;;17.01;56.25;101328.09;4997495;28;119857;-75
2022/05/10 05:20:05;;;;;;;10.73;7.10;;;;;;;17.17;56.39;101349.78;4994425;28;119877;-75
2022/05/10 05:22:31;;;;;;;14.90;7.15;;;;;;;17.16;54.78;101328.84;4982974;28;119595;-74
2022/05/10 05:24:56;;;;;;;17.02;7.47;;;;;;;17.21;54.96;101329.41;4975572;28;121800;-74
2022/05/10 05:27:22;;;;;;;14.52;7.25;;;;;;;17.26;55.29;101331.50;4990803;28;120040;-75
2022/05/10 05:29:48;;;;;;;15.93;7.25;;;;;;;17.30;55.47;101321.00;4992852;28;119939;-75
2022/05/10 05:32:17;;;;;;;13.85;6.93;;;;;;;17.39;55.36;101323.66;5009412;28;121845;-74
2022/05/10 05:34:46;;;;;;;11.60;6.88;;;;;;;17.41;55.41;101335.00;4997027;28;120001;-74
2022/05/10 05:39:55;;;;;;;11.90;6.90;;;;;;;17.44;54.98;101314.63;4965584;28;122122;-74
2022/05/10 05:42:21;;;;;;;15.98;7.07;;;;;;;17.51;54.80;101314.25;5014556;28;119824;-75
2022/05/10 05:44:46;;;;;;;14.98;6.38;;;;;;;17.54;54.30;101307.75;4984503;28;121640;-75
2022/05/10 05:47:12;;;;;;;12.55;7.68;;;;;;;17.59;54.79;101312.59;5006958;28;121502;-75
2022/05/10 05:49:38;;;;;;;14.32;6.90;;;;;;;17.64;54.93;101317.44;5006607;28;121040;-75
2022/05/10 05:52:04;;;;;;;13.93;7.03;;;;;;;17.69;54.27;101319.56;4965003;28;120393;-75
2022/05/10 05:54:33;;;;;;;11.07;6.85;;;;;;;17.72;54.81;101310.25;5005814;28;120521;-75
2022/05/10 05:57:00;;;;;;;12.43;7.15;;;;;;;17.80;55.48;101310.63;5001600;28;119958;-74
2022/05/10 05:59:27;;;;;;;13.10;6.70;;;;;;;17.82;54.35;101313.69;4982674;27;122079;-75
2022/05/10 06:01:53;;;;;;;17.50;7.15;;;;;;;17.78;54.79;101305.56;4963646;28;120116;-75
2022/05/10 06:04:18;;;;;;;13.15;6.25;;;;;;;17.86;53.78;101307.91;4960474;28;119745;-74
2022/05/10 06:06:44;;;;;;;13.00;6.68;;;;;;;17.91;53.61;101307.97;4988736;28;120166;-74
2022/05/10 06:09:09;;;;;;;14.63;6.20;;;;;;;17.94;53.01;101300.69;4989297;28;119463;-74
2022/05/10 06:11:35;;;;;;;13.75;6.53;;;;;;;17.96;52.79;101290.63;4960203;28;122201;-74
2022/05/10 06:14:01;;;;;;;11.25;6.32;;;;;;;17.92;53.03;101280.97;4939549;28;122995;-74
2022/05/10 06:16:28;;;;;;;11.82;6.03;;;;;;;17.96;53.28;101281.53;4955528;28;119609;-75
2022/05/10 06:18:54;;;;;;;14.02;6.40;;;;;;;18.06;52.98;101302.34;4975969;28;122018;-75
2022/05/10 06:21:20;;;;;;;15.60;7.47;;;;;;;18.04;53.64;101293.75;5010444;28;119894;-75
2022/05/10 06:23:46;;;;;;;23.98;7.60;;;;;;;18.03;53.34;101286.69;4991478;28;120327;-75
2022/05/10 06:26:11;;;;;;;26.58;7.70;;;;;;;18.20;52.99;101304.25;4981863;28;121673;-75
2022/05/10 06:28:37;;;;;;;17.40;7.25;;;;;;;18.25;53.80;101298.03;4988555;28;120062;-75
2022/05/10 06:31:06;;;;;;;14.15;6.95;;;;;;;18.32;53.31;101308.69;4973794;28;121858;-74
2022/05/10 06:33:32;;;;;;;15.35;6.97;;;;;;;18.35;53.12;101307.72;4988653;28;123123;-75
2022/05/10 06:35:58;;;;;;;13.25;6.57;;;;;;;18.35;52.75;101298.63;4999855;28;119935;-74
2022/05/10 06:38:27;;;;;;;13.27;6.38;;;;;;;18.42;53.15;101304.50;4992325;28;119957;-74
2022/05/10 06:40:59;;;;;;;14.93;6.55;;;;;;;18.48;53.16;101301.03;4973081;28;123460;-75
2022/05/10 06:43:25;;;;;;;14.38;7.47;;;;;;;18.52;52.92;101298.81;4991931;28;119952;-75
2022/05/10 06:45:51;;;;;;;17.73;7.50;;;;;;;18.51;52.40;101283.38;5004730;28;119896;-75
2022/05/10 06:48:16;;;;;;;14.25;6.90;;;;;;;18.62;52.76;101297.38;4994828;28;119647;-75
2022/05/10 06:50:44;;;;;;;30.85;8.43;;;;;;;18.68;52.37;101292.66;5003109;28;119973;-75
2022/05/10 06:53:10;;;;;;;16.80;7.45;;;;;;;18.65;52.55;101271.41;4984135;28;123209;-75
2022/05/10 06:55:38;;;;;;;18.08;7.45;;;;;;;18.76;52.60;101285.41;4988600;28;119945;-75
2022/05/10 06:58:04;;;;;;;17.88;7.55;;;;;;;18.79;52.68;101281.63;4991877;28;119818;-74
2022/05/10 07:00:31;;;;;;;12.18;6.68;;;;;;;18.83;52.38;101278.63;5003226;28;123831;-74
2022/05/10 07:02:57;;;;;;;14.38;6.75;;;;;;;18.86;52.63;101277.63;5003866;28;119988;-75
2022/05/10 07:05:23;;;;;;;15.60;7.50;;;;;;;18.88;52.69;101270.31;4971935;28;122072;-74
2022/05/10 07:07:49;;;;;;;16.05;7.60;;;;;;;18.93;52.53;101266.84;4973280;28;122814;-74
2022/05/10 07:10:17;;;;;;;10.50;7.00;;;;;;;19.01;52.53;101267.16;5004568;28;121979;-75
2022/05/10 07:12:44;;;;;;;13.90;7.90;;;;;;;19.09;52.57;101278.56;4991404;28;123127;-74
2022/05/10 07:15:16;;;;;;;16.70;7.30;;;;;;;19.18;52.36;101284.72;4999216;28;121674;-75
2022/05/10 07:17:45;;;;;;;13.25;7.15;;;;;;;19.19;52.00;101269.56;4986932;28;122010;-75
2022/05/10 07:20:13;;;;;;;13.90;8.10;;;;;;;19.33;52.01;101271.38;4982677;28;123000;-74
2022/05/10 07:22:39;;;;;;;15.63;8.35;;;;;;;19.41;52.07;101268.16;4988653;28;121407;-74
2022/05/10 07:25:06;;;;;;;14.50;8.02;;;;;;;19.42;52.12;101259.31;4984048;28;122244;-75
2022/05/10 07:27:32;;;;;;;15.55;8.93;;;;;;;19.50;51.36;101257.56;4996988;28;123290;-74
2022/05/10 07:29:57;;;;;;;15.45;8.27;;;;;;;19.56;51.59;101261.16;5008883;28;120010;-75
2022/05/10 07:32:24;;;;;;;20.08;8.38;;;;;;;19.62;51.87;101250.81;5001333;28;120096;-75
2022/05/10 07:34:50;;;;;;;20.15;8.23;;;;;;;19.69;51.62;101249.59;4974923;28;120007;-75
2022/05/10 07:37:18;;;;;;;14.68;8.32;;;;;;;19.79;51.26;101242.53;5001633;28;120508;-74
2022/05/10 07:39:43;;;;;;;17.40;8.57;;;;;;;19.79;51.49;101236.22;5000117;28;119973;-75
2022/05/10 07:42:09;;;;;;;17.85;8.52;;;;;;;19.88;51.80;101239.56;4985824;28;121177;-74
2022/05/10 07:44:34;;;;;;;24.50;10.43;;;;;;;19.95;51.22;101245.88;4997148;28;120312;-75
2022/05/10 07:47:00;;;;;;;22.17;9.18;;;;;;;19.99;51.69;101243.63;4984488;28;123080;-75
2022/05/10 07:49:26;;;;;;;18.33;9.93;;;;;;;20.06;51.66;101243.88;4999764;27;119924;-75
2022/05/10 07:51:52;;;;;;;14.05;8.95;;;;;;;20.22;51.79;101237.59;5004839;28;120002;-75
2022/05/10 07:54:19;;;;;;;22.05;10.13;;;;;;;20.42;51.59;101228.28;4985222;28;120525;-75
2022/05/10 07:56:44;;;;;;;17.52;9.80;;;;;;;20.64;50.53;101226.75;4989470;28;121166;-75
2022/05/10 07:59:13;;;;;;;18.77;9.38;;;;;;;20.76;50.38;101223.44;5002106;27;120296;-75
2022/05/10 08:01:38;;;;;;;19.65;9.45;;;;;;;20.94;50.39;101233.31;5014336;27;119844;-75
2022/05/10 08:04:04;;;;;;;14.32;8.77;;;;;;;21.00;50.35;101211.75;5006926;28;121880;-75
2022/05/10 08:06:30;;;;;;;18.02;9.85;;;;;;;21.08;49.74;101225.94;5006955;28;121163;-75
2022/05/10 08:08:55;;;;;;;16.58;9.18;;;;;;;21.16;50.02;101215.78;5015276;27;119714;-75
2022/05/10 08:11:22;;;;;;;19.42;10.57;;;;;;;21.28;49.95;101214.47;4992727;28;120453;-75
2022/05/10 08:13:48;;;;;;;18.75;9.82;;;;;;;21.44;49.65;101208.09;4998143;28;123023;-75
2022/05/10 08:16:15;;;;;;;22.40;10.38;;;;;;;21.57;48.70;101204.75;4987459;28;121669;-75
2022/05/10 08:18:45;;;;;;;23.50;11.13;;;;;;;21.67;48.62;101196.81;4970287;28;123409;-75
2022/05/10 08:21:11;;;;;;;21.00;10.55;;;;;;;21.68;48.69;101181.59;4990767;28;120539;-75
2022/05/10 08:23:37;;;;;;;25.15;11.82;;;;;;;21.84;48.77;101193.94;5002384;28;119652;-75
2022/05/10 08:26:04;;;;;;;29.95;11.93;;;;;;;21.87;48.50;101199.25;4994222;27;121847;-75
2022/05/10 08:28:30;;;;;;;30.58;12.50;;;;;;;21.89;47.72;101187.56;5005681;28;119689;-75
2022/05/10 08:30:57;;;;;;;21.05;9.85;;;;;;;21.99;47.91;101202.72;4984768;28;122574;-75
2022/05/10 08:33:29;;;;;;;25.35;11.73;;;;;;;22.06;48.01;101205.00;5011084;27;120576;-75
2022/05/10 08:35:57;;;;;;;24.98;11.35;;;;;;;22.12;47.85;101199.38;5009874;28;120577;-75
2022/05/10 08:38:24;;;;;;;21.67;11.23;;;;;;;22.17;47.70;101187.38;5003041;28;123020;-75
2022/05/10 08:40:55;;;;;;;19.00;10.90;;;;;;;22.24;47.79;101189.63;5022524;27;120056;-75
2022/05/10 08:43:28;;;;;;;21.17;10.98;;;;;;;22.22;48.02;101172.63;4989573;28;120494;-75
2022/05/10 08:45:55;;;;;;;18.50;11.37;;;;;;;22.39;48.12;101181.63;4992148;28;122515;-75
2022/05/10 08:48:27;;;;;;;16.42;10.32;;;;;;;22.52;48.24;101181.03;5009566;28;119631;-75
2022/05/10 08:50:57;;;;;;;19.52;11.32;;;;;;;22.70;48.48;101171.94;5008886;27;121660;-75
2022/05/10 08:53:23;;;;;;;20.95;11.13;;;;;;;22.95;47.64;101178.34;5004522;28;120143;-75
2022/05/10 08:55:59;;;;;;;21.67;10.70;;;;;;;23.18;46.29;101173.22;5004536;28;119950;-75
2022/05/10 08:58:34;;;;;;;23.45;10.52;;;;;;;23.31;46.63;101173.31;4990476;28;123419;-75
2022/05/10 09:01:06;;;;;;;16.10;10.18;;;;;;;23.29;45.43;101159.09;5009146;28;120167;-75
2022/05/10 09:04:00;;;;;;;25.67;10.32;;;;;;;23.32;45.13;101174.84;5023052;27;120293;-75
2022/05/10 09:06:47;;;;;;;17.93;9.77;;;;;;;23.24;45.03;101174.69;4980519;28;123005;-75
2022/05/10 09:09:18;;;;;;;19.65;10.15;;;;;;;23.13;44.63;101168.47;4976386;28;119590;-75
2022/05/10 09:11:57;;;;;;;20.35;10.57;;;;;;;23.07;44.93;101173.38;4989568;28;122310;-75
2022/05/10 09:14:29;;;;;;;15.75;10.30;;;;;;;23.03;44.48;101175.69;4991092;28;120014;-75
2022/05/10 09:16:55;;;;;;;16.27;9.38;;;;;;;22.96;44.80;101171.47;4998168;28;119900;-75
2022/05/10 09:19:31;;;;;;;17.70;9.30;;;;;;;22.85;45.22;101165.97;4987431;28;122642;-75
2022/05/10 09:21:57;;;;;;;19.70;9.70;;;;;;;22.84;44.93;101176.41;4979172;28;119599;-75
2022/05/10 09:24:53;;;;;;;33.95;10.35;;;;;;;22.84;44.84;101181.25;5011450;27;119445;-75
2022/05/10 09:27:24;;;;;;;16.45;7.97;;;;;;;22.84;44.70;101187.59;4969992;28;124040;-75
2022/05/10 09:29:52;;;;;;;23.42;8.43;;;;;;;22.75;43.20;101181.56;4990962;28;120061;-75
2022/05/10 09:35:28;;;;;;;20.92;7.63;;;;;;;22.78;43.67;101174.94;5015898;27;120061;-75
2022/05/10 09:38:08;;;;;;;13.45;7.22;;;;;;;22.77;43.60;101176.22;4989648;28;119618;-75
2022/05/10 09:40:47;;;;;;;14.10;7.45;;;;;;;22.75;43.52;101170.38;4972909;28;122484;-75
2022/05/10 09:43:14;;;;;;;15.30;7.30;;;;;;;22.76;43.05;101163.50;5006093;27;120538;-75
2022/05/10 09:45:39;;;;;;;19.65;7.78;;;;;;;22.74;42.41;101155.66;4990216;27;121988;-75
2022/05/10 09:48:08;;;;;;;15.95;7.43;;;;;;;22.86;42.09;101150.72;5004006;27;123453;-75
2022/05/10 09:50:52;;;;;;;20.05;6.38;;;;;;;22.86;41.73;101145.88;5013457;27;119864;-75
2022/05/10 09:53:28;;;;;;;16.70;6.05;;;;;;;22.98;41.48;101151.34;5005244;27;122624;-75
2022/05/10 09:56:04;;;;;;;13.07;6.22;;;;;;;23.03;40.94;101150.53;5018870;27;122313;-75
2022/05/10 09:58:52;;;;;;;14.38;5.60;;;;;;;23.06;41.13;101153.03;4988333;28;119742;-75
2022/05/10 10:01:37;;;;;;;13.90;6.30;;;;;;;23.11;40.83;101152.19;4987048;28;122387;-75
2022/05/10 10:04:23;;;;;;;12.77;5.65;;;;;;;23.14;41.18;101148.34;5012471;27;123669;-75
2022/05/10 10:07:28;;;;;;;13.57;6.32;;;;;;;23.14;41.56;101142.75;4990324;27;119636;-75
2022/05/10 10:10:15;;;;;;;;;;;;;;;23.18;41.47;101143.19;5016193;27;122885;-75
2022/05/10 10:12:43;;;;;;;11.02;6.03;;;;;;;23.20;40.58;101123.88;4990791;27;121232;-75
2022/05/10 10:15:18;;;;;;;19.42;6.75;;;;;;;23.32;41.00;101126.50;5002980;28;122362;-75
2022/05/10 10:17:53;;;;;;;11.50;5.65;;;;;;;23.34;41.38;101116.28;5017402;27;123082;-75
2022/05/10 10:20:35;;;;;;;12.50;6.03;;;;;;;23.40;41.75;101116.19;4996749;28;119823;-75
2022/05/10 10:23:25;;;;;;;13.25;6.18;;;;;;;23.42;41.41;101116.44;5008328;27;119919;-75
2022/05/10 10:25:55;;;;;;;14.15;5.80;;;;;;;23.42;41.98;101110.84;4992810;27;120278;-75
2022/05/10 10:28:50;;;;;;;11.65;6.65;;;;;;;23.44;42.00;101119.47;5007240;27;119954;-75
2022/05/10 10:31:26;;;;;;;12.70;6.38;;;;;;;23.44;41.65;101125.09;5006029;28;120516;-75
2022/05/10 10:34:07;;;;;;;11.40;5.40;;;;;;;23.39;41.89;101129.44;5016354;27;120034;-75
2022/05/10 10:36:54;;;;;;;7.80;5.40;;;;;;;23.29;41.64;101125.53;5019880;27;120588;-75
2022/05/10 10:39:40;;;;;;;9.27;4.88;;;;;;;23.19;41.94;101116.75;4991540;27;124121;-76
2022/05/10 10:42:17;;;;;;;11.07;5.38;;;;;;;23.16;42.57;101128.22;4991404;27;120142;-75
2022/05/10 10:44:46;;;;;;;;;;;;;;;23.12;42.69;101127.75;4980712;27;122011;-75
2022/05/10 10:47:27;;;;;;;15.30;4.85;;;;;;;23.03;42.55;101102.97;4979624;27;122962;-75
2022/05/10 10:49:53;;;;;;;9.55;5.35;;;;;;;22.92;42.20;101121.38;5010080;27;121378;-75
2022/05/10 10:52:19;;;;;;;8.60;4.82;;;;;;;22.78;43.02;101110.59;4999773;28;122050;-75
2022/05/10 10:54:46;;;;;;;8.70;4.32;;;;;;;22.82;43.01;101111.84;4991997;28;120272;-75
2022/05/10 10:57:27;;;;;;;9.13;4.68;;;;;;;22.81;43.67;101092.78;4990362;28;122102;-75
2022/05/10 11:00:04;;;;;;;6.57;4.50;;;;;;;22.78;44.66;101085.44;4989615;28;122973;-75
2022/05/10 11:02:42;;;;;;;11.30;5.10;;;;;;;22.81;44.76;101081.59;5006673;27;120467;-75
2022/05/10 11:05:35;;;;;;;12.50;5.00;;;;;;;22.86;45.07;101061.19;4996300;27;120370;-75
2022/05/10 11:08:32;;;;;;;9.52;5.32;;;;;;;22.93;44.85;101055.00;5017308;27;123311;-75
2022/05/10 11:11:18;;;;;;;10.73;5.60;;;;;;;22.97;44.99;101041.50;5003833;27;120093;-75
2022/05/10 11:13:58;;;;;;;6.72;4.88;;;;;;;23.00;44.87;101032.03;5000355;27;122222;-75
2022/05/10 11:17:01;;;;;;;10.30;5.03;;;;;;;23.04;44.98;101032.50;5004898;27;121104;-75
2022/05/10 11:20:02;;;;;;;9.82;4.60;;;;;;;22.89;44.74;100998.59;5029236;27;120032;-75
2022/05/10 11:22:49;;;;;;;9.75;4.30;;;;;;;23.02;44.54;101017.53;4987813;27;122490;-75
2022/05/10 11:25:36;;;;;;;10.88;5.05;;;;;;;23.00;44.57;101015.25;5015352;27;120142;-76
2022/05/10 11:28:28;;;;;;;13.40;4.70;;;;;;;23.02;44.37;101029.47;4985465;28;122287;-75
2022/05/10 11:31:18;;;;;;;12.25;4.47;;;;;;;23.00;44.20;101031.28;4951335;28;120589;-75
2022/05/10 11:34:20;;;;;;;8.23;4.18;;;;;;;22.96;43.58;101045.59;4988304;28;119921;-75
2022/05/10 11:36:51;;;;;;;5.53;4.03;;;;;;;22.96;44.46;101065.16;4953663;28;122423;-75
2022/05/10 11:39:19;;;;;;;8.52;4.28;;;;;;;22.98;44.33;101068.19;4953767;28;122027;-75
2022/05/10 11:42:06;;;;;;;8.07;4.03;;;;;;;22.95;45.73;101058.81;4941333;28;119746;-75
2022/05/10 11:44:57;;;;;;;8.65;3.70;;;;;;;23.09;45.70;101070.81;4995007;28;120093;-75